Time;durP1;ratioP1;P1;durP2;ratioP2;P2;SDS_P1;SDS_P2;PMS_P1;PMS_P2;Temp;Humidity;BMP_temperature;BMP_pressure;BME280_temperature;BME280_humidity;BME280_pressure;Samples;Min_cycle;Max_cycle;Signal;HPM_P1;HPM_P2
2023/12/28 00:00:45;;;;;;;3.53;1.83;;;;;;;;;;2026452;29;20490;-55
2023/12/28 00:01:45;;;;;;;3.67;2.15;;;;;;;;;;2026525;29;20051;-52
2023/12/28 00:02:46;;;;;;;6.93;2.58;;;;;;;;;;2026054;29;20040;-56
2023/12/28 00:03:47;;;;;;;4.57;2.25;;;;;;;;;;2026285;29;20504;-58
2023/12/28 00:04:48;;;;;;;4.90;2.33;;;;;;;;;;2027607;29;20123;-55
2023/12/28 00:05:48;;;;;;;5.20;2.38;;;;;;;;;;2027588;29;20500;-55
2023/12/28 00:06:49;;;;;;;4.07;2.40;;;;;;;;;;2027553;29;20044;-55
2023/12/28 00:07:56;;;;;;;5.18;2.65;;;;;;;;;;2027949;29;20028;-55
2023/12/28 00:08:57;;;;;;;4.85;2.40;;;;;;;;;;2027732;29;20040;-53
2023/12/28 00:09:58;;;;;;;4.68;1.95;;;;;;;;;;2027524;29;20039;-52
2023/12/28 00:10:58;;;;;;;4.07;2.30;;;;;;;;;;2026597;29;20072;-54
2023/12/28 00:11:59;;;;;;;6.15;1.98;;;;;;;;;;2027289;29;20036;-54
2023/12/28 00:13:00;;;;;;;4.35;2.00;;;;;;;;;;2026929;29;20139;-55
2023/12/28 00:14:01;;;;;;;6.22;2.05;;;;;;;;;;2026868;29;20064;-54
2023/12/28 00:15:01;;;;;;;4.55;2.10;;;;;;;;;;2027566;29;20128;-53
2023/12/28 00:16:02;;;;;;;4.35;2.20;;;;;;;;;;2027796;29;20045;-54
2023/12/28 00:17:03;;;;;;;4.78;2.53;;;;;;;;;;2027686;29;20033;-53
2023/12/28 00:18:04;;;;;;;4.45;2.00;;;;;;;;;;2027540;29;20045;-54
2023/12/28 00:19:05;;;;;;;5.05;2.30;;;;;;;;;;2026739;29;20056;-55
2023/12/28 00:20:05;;;;;;;6.53;2.03;;;;;;;;;;2027554;29;20047;-54
2023/12/28 00:21:06;;;;;;;4.43;1.80;;;;;;;;;;2027937;29;20178;-55
2023/12/28 00:22:07;;;;;;;4.03;1.98;;;;;;;;;;2027080;29;20366;-54
2023/12/28 00:23:08;;;;;;;4.20;2.10;;;;;;;;;;2026523;29;20045;-53
2023/12/28 00:24:08;;;;;;;4.93;2.55;;;;;;;;;;2027615;29;20473;-54
2023/12/28 00:25:09;;;;;;;4.88;2.20;;;;;;;;;;2027620;29;20047;-55
2023/12/28 00:26:10;;;;;;;4.03;2.15;;;;;;;;;;2027052;29;20080;-54
2023/12/28 00:27:11;;;;;;;4.00;1.98;;;;;;;;;;2026794;29;20045;-55
2023/12/28 00:28:11;;;;;;;5.95;2.03;;;;;;;;;;2019106;29;20045;-55
2023/12/28 00:29:12;;;;;;;4.55;1.67;;;;;;;;;;2019070;29;20041;-54
2023/12/28 00:30:13;;;;;;;5.78;2.20;;;;;;;;;;2019046;29;20504;-54
2023/12/28 00:31:14;;;;;;;4.30;2.00;;;;;;;;;;2018484;29;20053;-54
2023/12/28 00:32:15;;;;;;;3.53;1.73;;;;;;;;;;2019300;29;20532;-57
2023/12/28 00:33:16;;;;;;;5.55;2.45;;;;;;;;;;2011130;29;20049;-52
2023/12/28 00:34:16;;;;;;;3.47;1.98;;;;;;;;;;2019129;29;20421;-53
2023/12/28 00:35:17;;;;;;;4.68;1.90;;;;;;;;;;2027194;29;20032;-53
2023/12/28 00:36:18;;;;;;;4.72;2.30;;;;;;;;;;2027174;29;20079;-53
2023/12/28 00:37:19;;;;;;;5.18;2.13;;;;;;;;;;2026788;29;20049;-55
2023/12/28 00:38:19;;;;;;;4.75;1.92;;;;;;;;;;2027135;29;20048;-54
2023/12/28 00:39:20;;;;;;;4.93;2.10;;;;;;;;;;2027277;29;20032;-55
2023/12/28 00:40:21;;;;;;;4.43;2.20;;;;;;;;;;2025899;29;20424;-54
2023/12/28 00:41:23;;;;;;;3.47;1.73;;;;;;;;;;2026659;29;20493;-53
2023/12/28 00:42:24;;;;;;;3.50;2.00;;;;;;;;;;2019138;29;20033;-54
2023/12/28 00:43:25;;;;;;;4.50;1.98;;;;;;;;;;2019108;29;20037;-55
2023/12/28 00:44:26;;;;;;;4.00;1.92;;;;;;;;;;2011743;29;20064;-54
2023/12/28 00:45:27;;;;;;;3.53;1.75;;;;;;;;;;2019273;29;20040;-53
2023/12/28 00:46:28;;;;;;;4.07;2.05;;;;;;;;;;2027497;29;20032;-53
2023/12/28 00:47:29;;;;;;;3.97;2.05;;;;;;;;;;2027321;29;20040;-54
2023/12/28 00:48:29;;;;;;;4.45;1.95;;;;;;;;;;2027055;29;20040;-51
2023/12/28 00:49:30;;;;;;;4.85;1.88;;;;;;;;;;2019500;29;20430;-55
2023/12/28 00:50:32;;;;;;;3.90;1.70;;;;;;;;;;2018685;29;20032;-54
2023/12/28 00:51:32;;;;;;;4.28;1.70;;;;;;;;;;2026602;29;20499;-54
2023/12/28 00:52:33;;;;;;;3.40;1.77;;;;;;;;;;2026148;29;20040;-53
2023/12/28 00:53:34;;;;;;;5.72;2.30;;;;;;;;;;2027315;29;20047;-54
2023/12/28 00:54:36;;;;;;;3.17;1.65;;;;;;;;;;2026247;29;20086;-54
2023/12/28 00:55:37;;;;;;;3.30;1.75;;;;;;;;;;2026533;29;20065;-54
2023/12/28 00:56:37;;;;;;;3.00;1.77;;;;;;;;;;2019011;29;20167;-53
2023/12/28 00:57:38;;;;;;;2.95;1.70;;;;;;;;;;2019019;29;20045;-53
2023/12/28 00:58:40;;;;;;;3.05;1.60;;;;;;;;;;2019032;29;20049;-54
2023/12/28 00:59:41;;;;;;;3.13;1.63;;;;;;;;;;2027063;29;20044;-53
2023/12/28 01:00:42;;;;;;;2.97;1.52;;;;;;;;;;2027019;29;20032;-54
2023/12/28 01:01:43;;;;;;;4.45;2.03;;;;;;;;;;2027250;29;20044;-53
2023/12/28 01:02:46;;;;;;;4.43;1.77;;;;;;;;;;2026810;29;20418;-54
2023/12/28 01:03:47;;;;;;;4.45;1.90;;;;;;;;;;2027286;29;20118;-53
2023/12/28 01:04:48;;;;;;;6.75;1.80;;;;;;;;;;2026457;29;20122;-54
2023/12/28 01:05:50;;;;;;;4.72;1.73;;;;;;;;;;2026373;29;20044;-53
2023/12/28 01:06:53;;;;;;;7.60;2.10;;;;;;;;;;2026678;29;20431;-53
2023/12/28 01:07:54;;;;;;;3.60;1.73;;;;;;;;;;2026646;29;20493;-53
2023/12/28 01:08:55;;;;;;;3.35;1.73;;;;;;;;;;2026412;29;20040;-53
2023/12/28 01:09:56;;;;;;;6.72;2.13;;;;;;;;;;2027197;29;20044;-53
2023/12/28 01:10:56;;;;;;;3.33;1.85;;;;;;;;;;2026938;29;20043;-53
2023/12/28 01:11:57;;;;;;;4.43;1.70;;;;;;;;;;2018700;29;20045;-54
2023/12/28 01:12:58;;;;;;;3.53;1.70;;;;;;;;;;2018424;29;20049;-50
2023/12/28 01:13:59;;;;;;;4.50;1.88;;;;;;;;;;2018424;29;20045;-51
2023/12/28 01:15:00;;;;;;;3.65;1.90;;;;;;;;;;2017974;29;20071;-51
2023/12/28 01:16:01;;;;;;;3.25;1.70;;;;;;;;;;2026404;29;20399;-51
2023/12/28 01:17:01;;;;;;;4.22;1.95;;;;;;;;;;2018511;29;20045;-52
2023/12/28 01:18:02;;;;;;;5.43;2.08;;;;;;;;;;2018546;29;20044;-52
2023/12/28 01:19:03;;;;;;;3.15;1.55;;;;;;;;;;2026248;29;20052;-52
2023/12/28 01:20:04;;;;;;;4.20;2.00;;;;;;;;;;2027390;29;20043;-52
2023/12/28 01:21:05;;;;;;;3.72;1.70;;;;;;;;;;2026862;29;20036;-51
2023/12/28 01:22:06;;;;;;;3.08;1.63;;;;;;;;;;2027026;29;20055;-50
2023/12/28 01:23:07;;;;;;;3.10;1.58;;;;;;;;;;2025829;29;20059;-52
2023/12/28 01:24:07;;;;;;;5.53;1.67;;;;;;;;;;2025964;29;20417;-52
2023/12/28 01:25:08;;;;;;;3.47;1.80;;;;;;;;;;2027024;29;20064;-52
2023/12/28 01:26:13;;;;;;;4.07;1.63;;;;;;;;;;2027124;29;20469;-51
2023/12/28 01:27:14;;;;;;;3.33;1.50;;;;;;;;;;2025953;29;20048;-51
2023/12/28 01:28:15;;;;;;;4.32;1.85;;;;;;;;;;2026536;29;20047;-52
2023/12/28 01:29:16;;;;;;;3.20;1.83;;;;;;;;;;2018465;29;20548;-52
2023/12/28 01:30:17;;;;;;;4.07;1.70;;;;;;;;;;2018121;29;20051;-52
2023/12/28 01:31:17;;;;;;;3.05;1.50;;;;;;;;;;2026565;29;20049;-51
2023/12/28 01:32:18;;;;;;;3.58;1.88;;;;;;;;;;2026080;29;20056;-51
2023/12/28 01:33:19;;;;;;;3.30;1.50;;;;;;;;;;2026735;29;20032;-51
2023/12/28 01:34:20;;;;;;;4.53;2.03;;;;;;;;;;2018366;29;20397;-52
2023/12/28 01:35:20;;;;;;;4.28;1.70;;;;;;;;;;2018385;29;20041;-52
2023/12/28 01:36:21;;;;;;;4.10;1.75;;;;;;;;;;2018233;29;20048;-51
2023/12/28 01:37:22;;;;;;;3.88;1.52;;;;;;;;;;2018985;29;20056;-52
2023/12/28 01:38:23;;;;;;;3.75;1.80;;;;;;;;;;2026843;29;20106;-51
2023/12/28 01:39:24;;;;;;;3.03;1.55;;;;;;;;;;2026080;29;20114;-52
2023/12/28 01:40:24;;;;;;;2.35;1.50;;;;;;;;;;2025435;29;20036;-52
2023/12/28 01:41:27;;;;;;;2.60;1.50;;;;;;;;;;2018230;29;20041;-50
2023/12/28 01:42:30;;;;;;;4.13;1.90;;;;;;;;;;2018398;29;20033;-52
2023/12/28 01:43:30;;;;;;;2.65;1.58;;;;;;;;;;2026922;29;20355;-51
2023/12/28 01:44:31;;;;;;;4.03;1.50;;;;;;;;;;2027009;29;20035;-51
2023/12/28 01:45:32;;;;;;;3.83;1.50;;;;;;;;;;2026946;29;20047;-52
2023/12/28 01:46:33;;;;;;;3.95;1.98;;;;;;;;;;2026195;29;20047;-51
2023/12/28 01:47:34;;;;;;;2.58;1.50;;;;;;;;;;2018364;29;20052;-51
2023/12/28 01:48:35;;;;;;;3.28;1.50;;;;;;;;;;2017628;29;20049;-52
2023/12/28 01:49:35;;;;;;;2.72;1.63;;;;;;;;;;2026705;29;20492;-51
2023/12/28 01:50:36;;;;;;;2.92;1.40;;;;;;;;;;2018444;29;20045;-51
2023/12/28 01:51:37;;;;;;;3.22;1.50;;;;;;;;;;2018640;29;20041;-51
2023/12/28 01:52:38;;;;;;;3.80;1.48;;;;;;;;;;2026110;29;20389;-51
2023/12/28 01:53:40;;;;;;;3.13;1.67;;;;;;;;;;2018293;29;20071;-51
2023/12/28 01:54:41;;;;;;;3.38;1.50;;;;;;;;;;2018205;29;20049;-52
2023/12/28 01:55:42;;;;;;;3.13;1.70;;;;;;;;;;2025044;29;20143;-52
2023/12/28 01:56:43;;;;;;;2.78;1.50;;;;;;;;;;2018275;29;20049;-52
2023/12/28 01:57:44;;;;;;;3.78;1.30;;;;;;;;;;2010274;29;20482;-51
2023/12/28 01:58:44;;;;;;;2.92;1.50;;;;;;;;;;1995254;29;20050;-51
2023/12/28 01:59:45;;;;;;;3.03;1.65;;;;;;;;;;1995401;29;20053;-51
2023/12/28 02:00:46;;;;;;;3.53;1.80;;;;;;;;;;2010644;29;20045;-52
2023/12/28 02:01:47;;;;;;;3.17;1.63;;;;;;;;;;2025305;29;20455;-52
2023/12/28 02:02:48;;;;;;;3.05;1.58;;;;;;;;;;2025445;29;20052;-52
2023/12/28 02:03:48;;;;;;;3.70;1.63;;;;;;;;;;2026887;29;20044;-53
2023/12/28 02:04:49;;;;;;;4.43;1.67;;;;;;;;;;2017887;29;20378;-51
2023/12/28 02:05:50;;;;;;;2.78;1.70;;;;;;;;;;2018439;29;20490;-52
2023/12/28 02:06:50;;;;;;;2.88;1.40;;;;;;;;;;2018503;29;20064;-51
2023/12/28 02:07:51;;;;;;;4.13;1.77;;;;;;;;;;2018188;29;20037;-51
2023/12/28 02:08:52;;;;;;;3.17;1.50;;;;;;;;;;2026246;29;20059;-52
2023/12/28 02:09:53;;;;;;;3.80;1.35;;;;;;;;;;2025363;29;20440;-53
2023/12/28 02:10:55;;;;;;;4.22;1.63;;;;;;;;;;2018033;29;20040;-53
2023/12/28 02:11:55;;;;;;;3.95;1.73;;;;;;;;;;2010429;29;20041;-51
2023/12/28 02:12:56;;;;;;;3.15;1.60;;;;;;;;;;2018506;29;20037;-51
2023/12/28 02:13:57;;;;;;;1.88;1.10;;;;;;;;;;2010224;29;20037;-52
2023/12/28 02:14:58;;;;;;;4.47;1.50;;;;;;;;;;2010322;29;20040;-53
2023/12/28 02:16:01;;;;;;;2.97;1.52;;;;;;;;;;2017663;29;20049;-51
2023/12/28 02:17:07;;;;;;;2.65;1.45;;;;;;;;;;2017987;29;20052;-50
2023/12/28 02:18:08;;;;;;;3.25;1.60;;;;;;;;;;2018308;29;20040;-52
2023/12/28 02:19:29;;;;;;;4.47;1.77;;;;;;;;;;2025886;29;20040;-52
2023/12/28 02:20:31;;;;;;;3.28;1.50;;;;;;;;;;2011899;29;20045;-52
2023/12/28 02:21:32;;;;;;;5.47;1.58;;;;;;;;;;2018501;29;20068;-52
2023/12/28 02:22:32;;;;;;;3.22;1.20;;;;;;;;;;2018072;29;20029;-52
2023/12/28 02:23:33;;;;;;;3.92;1.92;;;;;;;;;;2018085;29;20501;-52
2023/12/28 02:24:50;;;;;;;3.17;1.27;;;;;;;;;;2025993;29;20045;-52
2023/12/28 02:25:51;;;;;;;2.65;1.50;;;;;;;;;;2025605;29;20454;-52
2023/12/28 02:26:52;;;;;;;2.92;1.55;;;;;;;;;;2025925;29;20409;-52
2023/12/28 02:27:53;;;;;;;3.72;1.90;;;;;;;;;;2026608;29;20032;-52
2023/12/28 02:28:54;;;;;;;2.58;1.35;;;;;;;;;;2026452;29;20043;-51
2023/12/28 02:29:55;;;;;;;3.20;1.52;;;;;;;;;;2026061;29;20048;-52
2023/12/28 02:30:55;;;;;;;3.60;1.45;;;;;;;;;;2025638;29;20413;-51
2023/12/28 02:31:59;;;;;;;4.35;1.67;;;;;;;;;;2017712;29;20056;-51
2023/12/28 02:33:02;;;;;;;3.88;1.50;;;;;;;;;;2010762;29;20070;-51
2023/12/28 02:34:12;;;;;;;2.55;1.38;;;;;;;;;;2018838;29;20370;-52
2023/12/28 02:35:36;;;;;;;3.95;1.60;;;;;;;;;;2025839;29;20405;-51
2023/12/28 02:36:37;;;;;;;6.15;1.52;;;;;;;;;;2026469;29;20053;-52
2023/12/28 02:37:38;;;;;;;2.60;1.50;;;;;;;;;;2025673;29;20492;-52
2023/12/28 02:38:39;;;;;;;2.63;1.40;;;;;;;;;;2017418;29;20052;-51
2023/12/28 02:39:45;;;;;;;3.00;1.50;;;;;;;;;;2018248;29;20040;-52
2023/12/28 02:40:46;;;;;;;4.25;2.00;;;;;;;;;;2025188;29;20044;-51
2023/12/28 02:41:47;;;;;;;3.13;1.60;;;;;;;;;;2025332;29;20382;-52
2023/12/28 02:42:47;;;;;;;3.15;1.50;;;;;;;;;;2025794;29;20040;-52
2023/12/28 02:43:48;;;;;;;3.05;1.50;;;;;;;;;;2025951;29;20049;-51
2023/12/28 02:44:49;;;;;;;3.95;1.60;;;;;;;;;;2025775;29;20139;-51
2023/12/28 02:45:50;;;;;;;3.88;1.65;;;;;;;;;;2025669;29;20041;-51
2023/12/28 02:46:51;;;;;;;4.10;1.95;;;;;;;;;;2026372;29;20426;-51
2023/12/28 02:47:52;;;;;;;3.78;1.48;;;;;;;;;;2026398;29;20461;-51
2023/12/28 02:48:52;;;;;;;5.13;1.45;;;;;;;;;;2026369;29;20036;-51
2023/12/28 02:49:53;;;;;;;2.42;1.20;;;;;;;;;;2017840;29;20049;-52
2023/12/28 02:50:54;;;;;;;3.13;1.45;;;;;;;;;;2017975;29;20056;-51
2023/12/28 02:51:55;;;;;;;2.92;1.40;;;;;;;;;;2026220;29;20493;-51
2023/12/28 02:52:56;;;;;;;4.20;1.55;;;;;;;;;;2025572;29;20136;-52
2023/12/28 02:53:57;;;;;;;4.18;1.58;;;;;;;;;;2017838;29;20052;-51
2023/12/28 02:54:57;;;;;;;4.68;1.60;;;;;;;;;;2018189;29;20494;-52
2023/12/28 02:55:58;;;;;;;3.22;1.30;;;;;;;;;;2026428;29;20040;-52
2023/12/28 02:56:59;;;;;;;4.35;1.60;;;;;;;;;;2025691;29;20060;-51
2023/12/28 02:58:00;;;;;;;6.40;1.90;;;;;;;;;;2017793;29;20041;-52
2023/12/28 02:59:00;;;;;;;3.05;1.50;;;;;;;;;;2018079;29;20033;-53
2023/12/28 03:00:02;;;;;;;2.72;1.10;;;;;;;;;;2025925;29;20049;-53
2023/12/28 03:01:03;;;;;;;3.30;1.38;;;;;;;;;;2026294;29;20032;-51
2023/12/28 03:02:04;;;;;;;3.30;1.67;;;;;;;;;;2025584;29;20048;-51
2023/12/28 03:03:04;;;;;;;4.70;1.73;;;;;;;;;;2018211;29;20045;-53
2023/12/28 03:04:05;;;;;;;3.25;1.30;;;;;;;;;;2018064;29;20041;-52
2023/12/28 03:05:06;;;;;;;4.38;1.65;;;;;;;;;;2018212;29;20067;-52
2023/12/28 03:06:07;;;;;;;3.13;1.60;;;;;;;;;;2018127;29;20466;-52
2023/12/28 03:07:08;;;;;;;3.70;1.52;;;;;;;;;;2025987;29;20049;-52
2023/12/28 03:08:08;;;;;;;3.33;1.70;;;;;;;;;;2026340;29;20131;-52
2023/12/28 03:09:09;;;;;;;4.55;1.90;;;;;;;;;;2026411;29;20048;-51
2023/12/28 03:10:12;;;;;;;2.63;1.30;;;;;;;;;;2026085;29;20401;-52
2023/12/28 03:11:14;;;;;;;2.30;1.10;;;;;;;;;;2025450;29;20045;-52
2023/12/28 03:12:16;;;;;;;3.45;1.38;;;;;;;;;;2025931;29;20040;-52
2023/12/28 03:13:17;;;;;;;3.78;1.70;;;;;;;;;;2025882;29;20466;-52
2023/12/28 03:14:21;;;;;;;2.55;1.33;;;;;;;;;;2025590;29;20033;-51
2023/12/28 03:15:21;;;;;;;3.60;1.60;;;;;;;;;;2025753;29;20500;-52
2023/12/28 03:16:23;;;;;;;2.90;1.42;;;;;;;;;;2024897;29;20045;-51
2023/12/28 03:17:25;;;;;;;4.45;1.67;;;;;;;;;;2017193;29;20045;-52
2023/12/28 03:18:26;;;;;;;3.85;1.70;;;;;;;;;;2017508;29;20458;-52
2023/12/28 03:19:27;;;;;;;2.53;1.35;;;;;;;;;;2017866;29;20079;-52
2023/12/28 03:20:27;;;;;;;3.35;1.50;;;;;;;;;;2018679;29;20040;-51
2023/12/28 03:21:28;;;;;;;3.83;1.45;;;;;;;;;;2026010;29;20052;-52
2023/12/28 03:22:29;;;;;;;3.28;1.67;;;;;;;;;;2026909;29;20056;-52
2023/12/28 03:23:29;;;;;;;2.78;1.42;;;;;;;;;;2026864;29;20514;-52
2023/12/28 03:24:30;;;;;;;4.18;1.55;;;;;;;;;;2027164;29;20429;-51
2023/12/28 03:25:31;;;;;;;3.47;1.50;;;;;;;;;;2025457;29;20049;-52
2023/12/28 03:26:32;;;;;;;4.82;2.03;;;;;;;;;;2026074;29;20036;-51
2023/12/28 03:27:32;;;;;;;2.95;1.42;;;;;;;;;;2025567;29;20060;-53
2023/12/28 03:28:33;;;;;;;3.67;1.60;;;;;;;;;;2017812;29;20045;-51
2023/12/28 03:29:34;;;;;;;3.13;1.58;;;;;;;;;;2018220;29;20123;-51
2023/12/28 03:30:35;;;;;;;3.22;1.65;;;;;;;;;;2026221;29;20037;-52
2023/12/28 03:31:41;;;;;;;3.80;1.98;;;;;;;;;;2017831;29;20053;-52
2023/12/28 03:32:42;;;;;;;2.50;1.30;;;;;;;;;;2018433;29;20046;-51
2023/12/28 03:33:43;;;;;;;4.13;1.60;;;;;;;;;;2025440;29;20093;-52
2023/12/28 03:34:43;;;;;;;4.40;1.70;;;;;;;;;;2017384;29;20390;-51
2023/12/28 03:35:44;;;;;;;4.47;1.60;;;;;;;;;;2017743;29;20037;-51
2023/12/28 03:36:45;;;;;;;3.13;1.58;;;;;;;;;;2026168;29;20048;-51
2023/12/28 03:37:46;;;;;;;3.97;1.50;;;;;;;;;;2018629;29;20045;-52
2023/12/28 03:38:46;;;;;;;3.55;1.92;;;;;;;;;;2019417;29;20048;-52
2023/12/28 03:39:48;;;;;;;3.75;1.77;;;;;;;;;;2026555;29;20052;-51
2023/12/28 03:40:50;;;;;;;2.33;1.33;;;;;;;;;;2027229;29;20366;-52
2023/12/28 03:41:52;;;;;;;3.97;1.58;;;;;;;;;;2027729;29;20496;-51
2023/12/28 03:42:53;;;;;;;3.97;1.50;;;;;;;;;;2027067;29;20056;-52
2023/12/28 03:43:54;;;;;;;2.97;1.50;;;;;;;;;;2027283;29;20052;-52
2023/12/28 03:44:54;;;;;;;3.00;1.48;;;;;;;;;;2026494;29;20045;-51
2023/12/28 03:45:55;;;;;;;3.70;1.42;;;;;;;;;;2018914;29;20402;-52
2023/12/28 03:46:56;;;;;;;3.22;1.52;;;;;;;;;;2019167;29;20048;-51
2023/12/28 03:47:57;;;;;;;3.22;1.40;;;;;;;;;;2026355;29;20064;-52
2023/12/28 03:48:58;;;;;;;2.40;1.35;;;;;;;;;;2019256;29;20064;-51
2023/12/28 03:49:58;;;;;;;4.28;1.45;;;;;;;;;;2019051;29;20481;-52
2023/12/28 03:50:59;;;;;;;5.30;1.95;;;;;;;;;;2027293;29;20037;-52
2023/12/28 03:52:00;;;;;;;3.15;1.48;;;;;;;;;;2027553;29;20043;-52
2023/12/28 03:53:01;;;;;;;2.85;1.27;;;;;;;;;;2018963;29;20612;-52
2023/12/28 03:54:01;;;;;;;3.15;1.30;;;;;;;;;;2018867;29;20045;-52
2023/12/28 03:55:02;;;;;;;3.47;1.38;;;;;;;;;;2027100;29;20045;-52
2023/12/28 03:56:03;;;;;;;3.55;1.60;;;;;;;;;;2026665;29;20052;-52
2023/12/28 03:57:04;;;;;;;3.25;1.60;;;;;;;;;;2027905;29;20103;-52
2023/12/28 03:58:05;;;;;;;3.15;1.20;;;;;;;;;;2018521;29;20065;-52
2023/12/28 03:59:06;;;;;;;2.67;1.60;;;;;;;;;;2019503;29;20037;-51
2023/12/28 04:00:08;;;;;;;3.80;1.33;;;;;;;;;;2027499;29;20039;-51
2023/12/28 04:01:13;;;;;;;3.08;1.40;;;;;;;;;;2027860;29;20037;-52
2023/12/28 04:02:13;;;;;;;2.40;1.23;;;;;;;;;;2026685;29;20053;-51
2023/12/28 04:03:14;;;;;;;3.50;1.90;;;;;;;;;;2026877;29;20519;-51
2023/12/28 04:04:15;;;;;;;3.15;1.30;;;;;;;;;;2026989;29;20064;-52
2023/12/28 04:05:16;;;;;;;3.60;1.50;;;;;;;;;;2027450;29;20036;-51
2023/12/28 04:06:16;;;;;;;2.03;1.20;;;;;;;;;;2027562;29;20043;-51
2023/12/28 04:07:17;;;;;;;2.92;1.30;;;;;;;;;;2027720;29;20052;-52
2023/12/28 04:08:18;;;;;;;2.90;1.17;;;;;;;;;;2027591;29;20466;-52
2023/12/28 04:09:19;;;;;;;2.25;1.20;;;;;;;;;;2019165;29;20465;-52
2023/12/28 04:10:28;;;;;;;2.50;1.02;;;;;;;;;;2018702;29;20040;-52
2023/12/28 04:11:29;;;;;;;3.05;1.20;;;;;;;;;;2026696;29;20067;-51
2023/12/28 04:12:29;;;;;;;3.22;1.13;;;;;;;;;;2027380;29;20047;-52
2023/12/28 04:13:30;;;;;;;1.95;1.08;;;;;;;;;;2026830;29;20046;-51
2023/12/28 04:14:31;;;;;;;2.90;1.10;;;;;;;;;;2026152;29;20256;-52
2023/12/28 04:15:31;;;;;;;3.00;1.20;;;;;;;;;;2026878;29;20036;-50
2023/12/28 04:16:32;;;;;;;4.50;1.00;;;;;;;;;;2027604;29;20055;-51
2023/12/28 04:17:33;;;;;;;3.88;1.20;;;;;;;;;;2026113;29;20509;-51
2023/12/28 04:18:34;;;;;;;2.42;1.13;;;;;;;;;;2026713;29;20033;-53
2023/12/28 04:19:34;;;;;;;2.03;1.10;;;;;;;;;;2027357;29;20048;-52
2023/12/28 04:20:35;;;;;;;2.00;0.98;;;;;;;;;;2026730;29;20053;-52
2023/12/28 04:21:36;;;;;;;3.95;1.27;;;;;;;;;;2027033;29;20044;-52
2023/12/28 04:22:38;;;;;;;1.80;0.90;;;;;;;;;;2019170;29;20044;-51
2023/12/28 04:23:39;;;;;;;2.42;1.30;;;;;;;;;;2011559;29;20060;-52
2023/12/28 04:24:40;;;;;;;3.10;1.00;;;;;;;;;;2011297;29;20053;-51
2023/12/28 04:25:41;;;;;;;2.47;0.98;;;;;;;;;;2019246;29;20044;-51
2023/12/28 04:26:41;;;;;;;2.25;1.13;;;;;;;;;;2019204;29;20434;-52
2023/12/28 04:27:42;;;;;;;1.52;1.00;;;;;;;;;;2018948;29;20063;-51
2023/12/28 04:28:43;;;;;;;2.45;1.05;;;;;;;;;;2018943;29;20490;-51
2023/12/28 04:29:43;;;;;;;4.32;1.55;;;;;;;;;;2018954;29;20053;-51
2023/12/28 04:30:44;;;;;;;2.03;1.08;;;;;;;;;;2018539;29;20051;-52
2023/12/28 04:31:46;;;;;;;2.63;1.10;;;;;;;;;;2018355;29;20053;-51
2023/12/28 04:32:47;;;;;;;1.55;1.00;;;;;;;;;;2019120;29;20052;-52
2023/12/28 04:33:48;;;;;;;2.00;1.10;;;;;;;;;;2018676;29;20398;-52
2023/12/28 04:34:48;;;;;;;1.92;1.10;;;;;;;;;;2025880;29;20592;-52
2023/12/28 04:35:49;;;;;;;1.95;0.88;;;;;;;;;;2018968;29;20433;-52
2023/12/28 04:36:52;;;;;;;3.65;1.13;;;;;;;;;;2011189;29;20094;-51
2023/12/28 04:37:53;;;;;;;2.45;1.13;;;;;;;;;;2019224;29;20056;-53
2023/12/28 04:38:53;;;;;;;1.15;0.70;;;;;;;;;;2018802;29;20052;-51
2023/12/28 04:39:54;;;;;;;1.60;0.90;;;;;;;;;;2018608;29;20045;-50
2023/12/28 04:40:55;;;;;;;1.27;0.70;;;;;;;;;;2018872;29;20045;-54
2023/12/28 04:41:56;;;;;;;2.88;1.30;;;;;;;;;;2019061;29;20501;-52
2023/12/28 04:42:57;;;;;;;3.47;0.95;;;;;;;;;;2018159;29;20052;-52
2023/12/28 04:43:57;;;;;;;2.25;1.00;;;;;;;;;;2026677;29;20422;-51
2023/12/28 04:44:58;;;;;;;1.90;0.98;;;;;;;;;;2026681;29;20048;-53
2023/12/28 04:46:02;;;;;;;2.25;1.23;;;;;;;;;;2019122;29;20044;-52
2023/12/28 04:47:03;;;;;;;1.65;0.82;;;;;;;;;;2019017;29;20414;-51
2023/12/28 04:48:04;;;;;;;2.13;1.10;;;;;;;;;;2018672;29;20053;-52
2023/12/28 04:49:05;;;;;;;2.60;1.08;;;;;;;;;;2018085;29;20093;-52
2023/12/28 04:50:06;;;;;;;1.67;0.85;;;;;;;;;;2026112;29;20052;-51
2023/12/28 04:51:07;;;;;;;1.60;0.60;;;;;;;;;;2026765;29;20555;-52
2023/12/28 04:52:07;;;;;;;3.78;1.10;;;;;;;;;;2027124;29;20048;-53
2023/12/28 04:53:08;;;;;;;2.25;1.10;;;;;;;;;;2026397;29;20052;-51
2023/12/28 04:54:09;;;;;;;2.35;1.10;;;;;;;;;;2026183;29;20041;-52
2023/12/28 04:55:10;;;;;;;1.73;0.80;;;;;;;;;;2026479;29;20098;-52
2023/12/28 04:56:11;;;;;;;1.35;0.70;;;;;;;;;;2026593;29;20068;-52
2023/12/28 04:57:12;;;;;;;2.03;0.85;;;;;;;;;;2026974;29;20041;-52
2023/12/28 04:58:13;;;;;;;2.20;1.08;;;;;;;;;;2018906;29;20049;-52
2023/12/28 04:59:13;;;;;;;2.22;0.90;;;;;;;;;;2018463;29;20049;-51
2023/12/28 05:00:14;;;;;;;1.13;0.73;;;;;;;;;;2026672;29;20060;-51
2023/12/28 05:01:15;;;;;;;2.47;1.02;;;;;;;;;;2026335;29;20047;-52
2023/12/28 05:02:16;;;;;;;1.92;0.90;;;;;;;;;;2025736;29;20597;-51
2023/12/28 05:03:16;;;;;;;1.88;1.05;;;;;;;;;;2026490;29;20363;-52
2023/12/28 05:04:17;;;;;;;2.17;1.20;;;;;;;;;;2018645;29;20037;-52
2023/12/28 05:05:18;;;;;;;2.75;1.20;;;;;;;;;;2018813;29;20466;-51
2023/12/28 05:06:19;;;;;;;1.55;0.75;;;;;;;;;;2025787;29;20044;-52
2023/12/28 05:07:20;;;;;;;2.05;0.85;;;;;;;;;;2026399;29;20089;-52
2023/12/28 05:08:20;;;;;;;4.05;0.93;;;;;;;;;;2018591;29;20041;-51
2023/12/28 05:09:22;;;;;;;2.35;1.00;;;;;;;;;;2018900;29;20454;-52
2023/12/28 05:10:22;;;;;;;1.42;0.77;;;;;;;;;;2018603;29;20049;-51
2023/12/28 05:11:23;;;;;;;1.88;0.88;;;;;;;;;;2026387;29;20037;-51
2023/12/28 05:12:24;;;;;;;2.08;1.00;;;;;;;;;;2026164;29;20072;-52
2023/12/28 05:13:25;;;;;;;2.45;0.90;;;;;;;;;;2026676;29;20478;-52
2023/12/28 05:14:26;;;;;;;2.05;1.02;;;;;;;;;;2025770;29;20041;-52
2023/12/28 05:15:27;;;;;;;2.90;1.10;;;;;;;;;;2026441;29;20063;-52
2023/12/28 05:16:27;;;;;;;1.38;0.85;;;;;;;;;;2026558;29;20055;-51
2023/12/28 05:17:28;;;;;;;3.47;1.20;;;;;;;;;;2026810;29;20044;-52
2023/12/28 05:18:29;;;;;;;1.77;0.93;;;;;;;;;;2026884;29;20386;-52
2023/12/28 05:19:30;;;;;;;1.60;0.88;;;;;;;;;;2026850;29;20028;-51
2023/12/28 05:20:30;;;;;;;2.60;1.30;;;;;;;;;;2027500;29;20040;-52
2023/12/28 05:21:31;;;;;;;2.33;0.60;;;;;;;;;;2026945;29;20033;-52
2023/12/28 05:22:32;;;;;;;2.95;1.05;;;;;;;;;;2026791;29;20044;-51
2023/12/28 05:23:32;;;;;;;1.75;0.93;;;;;;;;;;2026448;29;20385;-51
2023/12/28 05:24:34;;;;;;;1.42;0.65;;;;;;;;;;2026427;29;20032;-51
2023/12/28 05:25:34;;;;;;;2.10;0.95;;;;;;;;;;2027154;29;20036;-52
2023/12/28 05:26:35;;;;;;;1.75;1.02;;;;;;;;;;2026961;29;20036;-53
2023/12/28 05:27:36;;;;;;;2.85;0.90;;;;;;;;;;2025825;29;20044;-52
2023/12/28 05:28:37;;;;;;;0.98;0.60;;;;;;;;;;2027163;29;20064;-53
2023/12/28 05:29:37;;;;;;;1.90;1.05;;;;;;;;;;2026797;29;20044;-52
2023/12/28 05:30:38;;;;;;;1.90;1.10;;;;;;;;;;2026792;29;20047;-52
2023/12/28 05:31:39;;;;;;;1.73;0.90;;;;;;;;;;2026724;29;20040;-52
2023/12/28 05:32:40;;;;;;;1.65;0.80;;;;;;;;;;2026147;29;20375;-51
2023/12/28 05:33:40;;;;;;;2.20;0.98;;;;;;;;;;2027029;29;20043;-52
2023/12/28 05:34:41;;;;;;;2.35;0.85;;;;;;;;;;2026195;29;20048;-51
2023/12/28 05:35:42;;;;;;;1.98;0.90;;;;;;;;;;2026222;29;20052;-52
2023/12/28 05:36:45;;;;;;;1.13;0.73;;;;;;;;;;2026713;29;20045;-52
2023/12/28 05:37:46;;;;;;;1.58;0.80;;;;;;;;;;2026606;29;20047;-51
2023/12/28 05:38:46;;;;;;;2.03;1.00;;;;;;;;;;2026776;29;20048;-51
2023/12/28 05:39:47;;;;;;;2.33;0.77;;;;;;;;;;2026975;29;20040;-52
2023/12/28 05:40:48;;;;;;;2.13;1.05;;;;;;;;;;2025992;29;20398;-52
2023/12/28 05:41:50;;;;;;;2.42;1.00;;;;;;;;;;2026193;29;20063;-51
2023/12/28 05:42:51;;;;;;;1.40;0.80;;;;;;;;;;2026887;29;20052;-51
2023/12/28 05:43:51;;;;;;;1.50;0.80;;;;;;;;;;2026830;29;20040;-51
2023/12/28 05:44:52;;;;;;;1.20;0.60;;;;;;;;;;2026773;29;20390;-51
2023/12/28 05:45:53;;;;;;;2.45;1.00;;;;;;;;;;2026103;29;20059;-51
2023/12/28 05:46:54;;;;;;;2.35;0.90;;;;;;;;;;2026872;29;20036;-52
2023/12/28 05:47:54;;;;;;;2.08;1.00;;;;;;;;;;2026621;29;20033;-51
2023/12/28 05:48:55;;;;;;;2.60;1.00;;;;;;;;;;2026633;29;20052;-52
2023/12/28 05:49:56;;;;;;;1.10;0.60;;;;;;;;;;2026365;29;20048;-51
2023/12/28 05:50:57;;;;;;;1.50;0.70;;;;;;;;;;2026076;29;20481;-52
2023/12/28 05:51:58;;;;;;;1.67;1.05;;;;;;;;;;2026625;29;20064;-51
2023/12/28 05:52:59;;;;;;;2.45;0.82;;;;;;;;;;2025998;29;20397;-51
2023/12/28 05:54:00;;;;;;;1.80;0.95;;;;;;;;;;2026108;29;20068;-53
2023/12/28 05:55:00;;;;;;;1.80;1.00;;;;;;;;;;2026514;29;20043;-51
2023/12/28 05:56:03;;;;;;;2.45;1.10;;;;;;;;;;2025926;29;20123;-52
2023/12/28 05:57:04;;;;;;;2.00;1.02;;;;;;;;;;2026212;29;20101;-52
2023/12/28 05:58:05;;;;;;;4.05;1.20;;;;;;;;;;2026546;29;20053;-51
2023/12/28 05:59:06;;;;;;;2.78;1.30;;;;;;;;;;2025697;29;20051;-52
2023/12/28 06:00:07;;;;;;;0.98;0.60;;;;;;;;;;2025714;29;20505;-51
2023/12/28 06:01:13;;;;;;;2.05;1.00;;;;;;;;;;2026847;29;20466;-51
2023/12/28 06:02:13;;;;;;;1.73;1.00;;;;;;;;;;2026749;29;20045;-52
2023/12/28 06:03:14;;;;;;;1.98;1.00;;;;;;;;;;2018267;29;20040;-51
2023/12/28 06:04:15;;;;;;;2.80;1.00;;;;;;;;;;2018380;29;20052;-51
2023/12/28 06:05:16;;;;;;;2.30;0.90;;;;;;;;;;2026664;29;20490;-56
2023/12/28 06:06:17;;;;;;;2.08;0.93;;;;;;;;;;2026581;29;20037;-51
2023/12/28 06:07:18;;;;;;;2.42;1.30;;;;;;;;;;2026708;29;20044;-51